createdAt,value
2018-07-21T00:01:16.245Z,55.98
2018-07-21T00:03:45.380Z,56.54
2018-07-21T00:06:14.538Z,56.79
2018-07-21T00:08:43.701Z,57.10
2018-07-21T00:11:13.006Z,57.21
2018-07-21T00:13:42.401Z,56.77
2018-07-21T00:16:11.703Z,57.53
2018-07-21T00:18:40.842Z,57.46
2018-07-21T00:21:09.983Z,57.97
2018-07-21T00:23:39.146Z,58.23
2018-07-21T00:26:08.274Z,58.88
2018-07-21T00:28:37.398Z,58.79
2018-07-21T00:31:06.562Z,59.23
2018-07-21T00:33:36.288Z,59.37
2018-07-21T00:36:05.505Z,58.74
2018-07-21T00:38:34.656Z,59.64
2018-07-21T00:41:03.802Z,59.83
2018-07-21T00:43:32.967Z,59.71
2018-07-21T00:46:02.091Z,60.47
2018-07-21T00:48:31.259Z,60.56
2018-07-21T00:51:00.386Z,60.71
2018-07-21T00:53:33.506Z,60.09
2018-07-21T00:56:03.575Z,61.28
2018-07-21T00:58:32.872Z,61.06
2018-07-21T01:01:02.255Z,60.75
2018-07-21T01:03:31.410Z,61.10
2018-07-21T01:06:00.516Z,61.46
2018-07-21T01:08:29.773Z,60.69
2018-07-21T01:10:58.950Z,61.11
2018-07-21T01:13:28.417Z,61.60
2018-07-21T01:15:57.550Z,61.68
2018-07-21T01:18:26.718Z,61.47
2018-07-21T01:20:55.970Z,61.82
2018-07-21T01:23:25.147Z,61.71
2018-07-21T01:25:54.330Z,61.84
2018-07-21T01:28:23.498Z,61.89
2018-07-21T01:30:52.665Z,62.29
2018-07-21T01:33:21.762Z,62.33
2018-07-21T01:35:50.911Z,62.51
2018-07-21T01:38:20.094Z,62.17
2018-07-21T01:40:49.230Z,62.47
2018-07-21T01:43:18.326Z,62.91
2018-07-21T01:45:47.652Z,63.12
2018-07-21T01:48:16.741Z,62.96
2018-07-21T01:50:45.841Z,63.03
2018-07-21T01:53:15.063Z,63.50
2018-07-21T01:55:44.170Z,63.26
2018-07-21T01:58:13.330Z,63.45
2018-07-21T02:00:42.430Z,62.97
2018-07-21T02:03:11.631Z,63.62
2018-07-21T02:05:40.735Z,64.23
2018-07-21T02:08:09.989Z,64.25
2018-07-21T02:10:38.976Z,64.20
2018-07-21T02:13:08.069Z,64.85
2018-07-21T02:15:37.311Z,64.91
2018-07-21T02:18:06.504Z,65.62
2018-07-21T02:20:35.607Z,66.01
2018-07-21T02:23:04.802Z,66.16
2018-07-21T02:25:33.920Z,65.90
2018-07-21T02:28:03.027Z,66.54
2018-07-21T02:30:32.214Z,66.46
2018-07-21T02:33:01.352Z,66.28
2018-07-21T02:35:30.510Z,66.14
2018-07-21T02:37:59.675Z,65.79
2018-07-21T02:40:28.810Z,66.71
2018-07-21T02:42:57.955Z,66.67
2018-07-21T02:45:27.173Z,66.45
2018-07-21T02:47:56.336Z,66.45
2018-07-21T02:50:25.685Z,66.55
2018-07-21T02:52:54.837Z,66.60
2018-07-21T02:55:23.967Z,66.52
2018-07-21T02:57:53.089Z,66.94
2018-07-21T03:00:22.267Z,67.18
2018-07-21T03:02:51.413Z,67.11
2018-07-21T03:05:20.556Z,66.97
2018-07-21T03:07:49.699Z,67.17
2018-07-21T03:10:18.843Z,67.17
2018-07-21T03:12:47.983Z,66.62
2018-07-21T03:15:17.086Z,67.00
2018-07-21T03:17:46.231Z,67.20
2018-07-21T03:20:15.339Z,66.64
2018-07-21T03:22:44.478Z,66.29
2018-07-21T03:25:13.669Z,65.89
2018-07-21T03:27:42.760Z,64.90
2018-07-21T03:30:11.927Z,64.95
2018-07-21T03:32:41.042Z,65.05
2018-07-21T03:35:10.153Z,65.08
2018-07-21T03:37:39.807Z,64.42
2018-07-21T03:40:08.902Z,64.59
2018-07-21T03:42:38.006Z,64.06
2018-07-21T03:45:07.120Z,64.49
2018-07-21T03:47:36.264Z,64.03
2018-07-21T03:50:05.948Z,64.07
2018-07-21T03:52:35.037Z,63.62
2018-07-21T03:55:04.251Z,63.66
2018-07-21T03:57:33.413Z,63.05
2018-07-21T04:00:02.543Z,63.20
2018-07-21T04:02:31.690Z,63.18
2018-07-21T04:05:00.798Z,62.52
2018-07-21T04:07:30.327Z,62.28
2018-07-21T04:09:59.447Z,61.78
2018-07-21T04:12:28.593Z,60.92
2018-07-21T04:14:57.710Z,60.49
2018-07-21T04:17:27.699Z,60.30
2018-07-21T04:19:57.634Z,58.93
2018-07-21T04:22:27.202Z,58.06
2018-07-21T04:24:56.754Z,56.70
2018-07-21T04:27:25.838Z,55.78
2018-07-21T04:29:55.014Z,54.63
2018-07-21T04:32:24.131Z,53.69
2018-07-21T04:34:53.256Z,52.45
2018-07-21T04:37:22.415Z,51.32
2018-07-21T04:39:51.533Z,50.28
2018-07-21T04:42:20.705Z,48.79
2018-07-21T04:44:49.841Z,47.88
2018-07-21T04:47:19.015Z,46.06
2018-07-21T04:49:48.111Z,45.00
2018-07-21T04:52:17.206Z,42.67
2018-07-21T04:54:46.519Z,42.13
2018-07-21T04:57:15.633Z,41.41
2018-07-21T04:59:44.730Z,39.84
2018-07-21T05:02:13.876Z,39.29
2018-07-21T05:04:42.978Z,37.68
2018-07-21T05:07:12.090Z,36.37
2018-07-21T05:09:41.228Z,36.31
2018-07-21T05:12:10.338Z,35.18
2018-07-21T05:14:39.455Z,34.71
2018-07-21T05:17:08.567Z,34.23
2018-07-21T05:19:37.752Z,33.28
2018-07-21T05:22:07.214Z,32.99
2018-07-21T05:24:36.338Z,32.64
2018-07-21T05:27:18.936Z,31.27
2018-07-21T05:29:48.073Z,31.52
2018-07-21T05:32:17.210Z,30.78
2018-07-21T05:34:46.369Z,30.33
2018-07-21T05:37:15.554Z,30.74
2018-07-21T05:39:44.697Z,30.14
2018-07-21T05:42:13.847Z,30.19
2018-07-21T05:44:42.980Z,28.93
2018-07-21T05:47:13.150Z,29.21
2018-07-21T05:49:42.300Z,28.12
2018-07-21T05:52:11.405Z,27.71
2018-07-21T05:54:40.611Z,27.98
2018-07-21T05:57:10.021Z,27.69
2018-07-21T05:59:39.269Z,27.06
2018-07-21T06:02:08.676Z,26.17
2018-07-21T06:04:37.874Z,26.28
2018-07-21T06:07:06.967Z,25.47
2018-07-21T06:09:36.177Z,25.17
2018-07-21T06:12:05.294Z,24.51
2018-07-21T06:14:34.396Z,24.76
2018-07-21T06:17:03.613Z,24.37
2018-07-21T06:19:32.754Z,23.96
2018-07-21T06:22:01.890Z,23.62
2018-07-21T06:24:31.040Z,23.70
2018-07-21T06:27:00.218Z,22.51
2018-07-21T06:29:29.347Z,22.51
2018-07-21T06:31:58.509Z,22.42
2018-07-21T06:34:27.655Z,22.48
2018-07-21T06:36:56.929Z,22.69
2018-07-21T06:39:26.100Z,22.47
2018-07-21T06:41:55.042Z,23.07
2018-07-21T06:44:24.154Z,23.06
2018-07-21T06:46:53.297Z,22.53
2018-07-21T06:49:22.411Z,22.49
2018-07-21T06:51:51.542Z,22.57
2018-07-21T06:54:20.731Z,22.93
2018-07-21T06:56:49.866Z,22.76
2018-07-21T06:59:18.998Z,22.89
2018-07-21T07:01:48.779Z,22.74
2018-07-21T07:04:17.953Z,23.31
2018-07-21T07:06:47.084Z,22.88
2018-07-21T07:09:16.217Z,22.30
2018-07-21T07:11:45.377Z,22.58
2018-07-21T07:14:14.509Z,22.36
2018-07-21T07:16:43.658Z,21.76
2018-07-21T07:19:12.798Z,21.69
2018-07-21T07:21:42.036Z,21.57
2018-07-21T07:24:11.643Z,21.76
2018-07-21T07:26:40.779Z,21.41
2018-07-21T07:29:09.869Z,21.46
2018-07-21T07:31:39.345Z,21.60
2018-07-21T07:34:08.605Z,21.63
2018-07-21T07:36:37.743Z,21.40
2018-07-21T07:39:09.333Z,20.36
2018-07-21T07:41:38.947Z,20.37
2018-07-21T07:44:08.250Z,20.75
2018-07-21T07:46:37.481Z,20.30
2018-07-21T07:49:06.970Z,20.40
2018-07-21T07:51:36.170Z,20.03
2018-07-21T07:54:05.366Z,20.31
2018-07-21T07:56:34.536Z,20.21
2018-07-21T07:59:03.643Z,20.41
2018-07-21T08:01:32.817Z,19.67
2018-07-21T08:04:02.122Z,19.64
2018-07-21T08:06:31.296Z,19.62
2018-07-21T08:09:00.457Z,19.23
2018-07-21T08:11:29.610Z,19.18
2018-07-21T08:13:58.757Z,19.07
2018-07-21T08:16:27.885Z,19.26
2018-07-21T08:18:57.014Z,19.79
2018-07-21T08:21:26.188Z,19.46
2018-07-21T08:23:55.810Z,18.91
2018-07-21T08:26:24.982Z,18.98
2018-07-21T08:28:54.150Z,19.07
2018-07-21T08:31:23.301Z,18.78
2018-07-21T08:33:52.411Z,18.70
2018-07-21T08:36:21.677Z,18.75
2018-07-21T08:38:50.843Z,19.23
2018-07-21T08:41:20.167Z,18.86
2018-07-21T08:43:49.371Z,18.54
2018-07-21T08:46:18.727Z,18.62
2018-07-21T08:48:47.898Z,19.08
2018-07-21T08:51:17.092Z,18.99
2018-07-21T08:53:46.254Z,18.61
2018-07-21T08:56:15.359Z,17.82
2018-07-21T08:58:44.567Z,18.47
2018-07-21T09:01:13.713Z,18.18
2018-07-21T09:03:42.877Z,18.73
2018-07-21T09:06:12.078Z,18.97
2018-07-21T09:08:41.241Z,18.47
2018-07-21T09:11:10.402Z,18.43
2018-07-21T09:13:40.916Z,18.32
2018-07-21T09:16:10.086Z,17.84
2018-07-21T09:18:39.285Z,17.30
2018-07-21T09:21:08.499Z,16.84
2018-07-21T09:23:37.634Z,16.90
2018-07-21T09:26:06.818Z,16.82
2018-07-21T09:28:36.003Z,16.87
2018-07-21T09:31:05.194Z,17.15
2018-07-21T09:33:34.374Z,16.88
2018-07-21T09:36:03.566Z,16.96
2018-07-21T09:38:32.735Z,16.96
2018-07-21T09:41:01.899Z,17.15
2018-07-21T09:43:31.102Z,17.07
2018-07-21T09:46:00.303Z,16.83
2018-07-21T09:48:29.530Z,17.16
2018-07-21T09:50:58.650Z,16.56
2018-07-21T09:53:27.835Z,16.50
2018-07-21T09:55:57.047Z,16.50
2018-07-21T09:58:26.140Z,16.03
2018-07-21T10:01:00.575Z,16.31
2018-07-21T10:03:29.883Z,16.37
2018-07-21T10:05:59.104Z,16.58
2018-07-21T10:08:28.278Z,16.93
2018-07-21T10:10:57.444Z,17.14
2018-07-21T10:13:26.584Z,17.40
2018-07-21T10:15:55.928Z,17.82
2018-07-21T10:18:25.032Z,17.81
2018-07-21T10:20:54.195Z,17.82
2018-07-21T10:23:23.408Z,18.11
2018-07-21T10:25:57.902Z,18.44
2018-07-21T10:28:32.575Z,18.42
2018-07-21T10:31:01.753Z,18.13
2018-07-21T10:33:30.923Z,17.63
2018-07-21T10:36:00.167Z,17.74
2018-07-21T10:38:29.258Z,17.60
2018-07-21T10:40:58.381Z,17.95
2018-07-21T10:43:27.514Z,18.49
2018-07-21T10:45:56.649Z,17.90
2018-07-21T10:48:25.807Z,18.89
2018-07-21T10:50:55.123Z,18.72
2018-07-21T10:53:24.305Z,18.64
2018-07-21T10:55:53.419Z,19.18
2018-07-21T10:58:22.680Z,19.88
2018-07-21T11:00:51.792Z,19.88
2018-07-21T11:03:20.912Z,20.98
2018-07-21T11:05:50.099Z,21.38
2018-07-21T11:08:19.251Z,21.55
2018-07-21T11:10:48.363Z,21.59
2018-07-21T11:13:17.507Z,21.87
2018-07-21T11:15:46.669Z,22.93
2018-07-21T11:18:15.859Z,22.49
2018-07-21T11:20:45.019Z,22.65
2018-07-21T11:23:14.759Z,22.78
2018-07-21T11:25:43.906Z,24.13
2018-07-21T11:28:13.056Z,24.12
2018-07-21T11:30:42.159Z,24.45
2018-07-21T11:33:11.278Z,24.46
2018-07-21T11:35:40.558Z,25.12
2018-07-21T11:38:09.591Z,25.35
2018-07-21T11:40:38.706Z,24.92
2018-07-21T11:43:07.892Z,25.35
2018-07-21T11:45:37.031Z,26.08
2018-07-21T11:48:06.687Z,25.95
2018-07-21T11:50:35.819Z,25.95
2018-07-21T11:53:04.971Z,25.13
2018-07-21T11:55:34.102Z,25.40
2018-07-21T11:58:03.246Z,26.18
2018-07-21T12:00:32.356Z,25.31
2018-07-21T12:03:01.574Z,26.23
2018-07-21T12:05:30.694Z,26.94
2018-07-21T12:08:00.034Z,26.72
2018-07-21T12:10:29.168Z,27.35
2018-07-21T12:12:58.356Z,27.66
2018-07-21T12:15:27.464Z,28.05
2018-07-21T12:17:56.635Z,28.40
2018-07-21T12:20:25.853Z,28.92
2018-07-21T12:22:54.878Z,28.24
2018-07-21T12:25:24.038Z,28.59
2018-07-21T12:27:53.916Z,28.52
2018-07-21T12:30:23.035Z,27.94
2018-07-21T12:32:52.197Z,29.04
2018-07-21T12:35:21.290Z,29.11
2018-07-21T12:37:50.413Z,28.06
2018-07-21T12:40:19.541Z,28.89
2018-07-21T12:42:48.707Z,28.96
2018-07-21T12:45:17.830Z,28.94
2018-07-21T12:47:46.943Z,29.03
2018-07-21T12:50:16.103Z,28.80
2018-07-21T12:52:45.236Z,29.29
2018-07-21T12:55:14.356Z,29.76
2018-07-21T12:57:43.496Z,30.63
2018-07-21T13:00:12.589Z,29.96
2018-07-21T13:02:41.785Z,31.12
2018-07-21T13:05:10.890Z,30.69
2018-07-21T13:07:40.006Z,30.92
2018-07-21T13:10:09.151Z,31.41
2018-07-21T13:12:38.269Z,31.60
2018-07-21T13:15:07.750Z,31.82
2018-07-21T13:17:36.928Z,31.76
2018-07-21T13:20:06.470Z,32.25
2018-07-21T13:22:35.674Z,32.08
2018-07-21T13:25:05.004Z,32.20
2018-07-21T13:27:34.106Z,32.79
2018-07-21T13:30:03.234Z,32.17
2018-07-21T13:32:32.349Z,31.77
2018-07-21T13:35:02.495Z,31.64
2018-07-21T13:37:31.603Z,31.65
2018-07-21T13:40:00.785Z,31.50
2018-07-21T13:42:29.894Z,31.05
2018-07-21T13:44:59.050Z,31.67
2018-07-21T13:47:28.214Z,31.70
2018-07-21T13:49:57.876Z,32.21
2018-07-21T13:52:27.006Z,31.37
2018-07-21T13:54:56.175Z,32.17
2018-07-21T13:57:25.301Z,32.25
2018-07-21T13:59:54.418Z,32.05
2018-07-21T14:02:23.557Z,31.30
2018-07-21T14:04:52.686Z,32.55
2018-07-21T14:07:21.839Z,31.41
2018-07-21T14:09:51.028Z,31.87
2018-07-21T14:12:20.166Z,30.96
2018-07-21T14:14:49.300Z,31.22
2018-07-21T14:17:18.425Z,31.00
2018-07-21T14:19:47.535Z,31.24
2018-07-21T14:22:16.663Z,31.51
2018-07-21T14:24:46.012Z,30.90
2018-07-21T14:27:15.142Z,31.29
2018-07-21T14:29:44.384Z,31.36
2018-07-21T14:32:13.457Z,31.00
2018-07-21T14:34:42.622Z,31.42
2018-07-21T14:37:11.735Z,30.98
2018-07-21T14:39:40.845Z,31.20
2018-07-21T14:42:10.103Z,30.58
2018-07-21T14:44:39.215Z,31.03
2018-07-21T14:47:08.323Z,31.11
2018-07-21T14:49:37.444Z,30.02
2018-07-21T14:52:06.578Z,30.10
2018-07-21T14:54:35.760Z,30.59
2018-07-21T14:57:04.909Z,31.47
2018-07-21T14:59:34.052Z,31.18
2018-07-21T15:02:03.204Z,30.67
2018-07-21T15:04:32.369Z,31.04
2018-07-21T15:07:01.534Z,30.78
2018-07-21T15:09:30.740Z,30.92
2018-07-21T15:11:59.835Z,30.98
2018-07-21T15:14:28.777Z,30.70
2018-07-21T15:16:58.041Z,30.50
2018-07-21T15:19:27.157Z,30.97
2018-07-21T15:21:56.287Z,30.74
2018-07-21T15:24:25.394Z,30.32
2018-07-21T15:26:54.516Z,30.77
2018-07-21T15:29:23.552Z,30.62
2018-07-21T15:31:52.673Z,31.05
2018-07-21T15:34:21.779Z,32.05
2018-07-21T15:36:51.014Z,31.48
2018-07-21T15:39:20.123Z,31.89
2018-07-21T15:41:49.270Z,30.98
2018-07-21T15:44:18.385Z,31.88
2018-07-21T15:46:47.511Z,31.98
2018-07-21T15:49:16.638Z,32.34
2018-07-21T15:51:45.943Z,32.60
2018-07-21T15:54:15.069Z,31.91
2018-07-21T15:56:45.083Z,32.97
2018-07-21T15:59:14.263Z,32.45
2018-07-21T16:01:43.430Z,32.08
2018-07-21T16:04:12.649Z,32.29
2018-07-21T16:06:41.798Z,32.92
2018-07-21T16:09:11.930Z,32.93
2018-07-21T16:11:41.395Z,32.64
2018-07-21T16:14:10.518Z,32.94
2018-07-21T16:16:39.659Z,32.44
2018-07-21T16:19:08.766Z,32.79
2018-07-21T16:21:38.037Z,33.64
2018-07-21T16:24:07.160Z,32.79
2018-07-21T16:26:36.262Z,32.79
2018-07-21T16:29:05.693Z,33.72
2018-07-21T16:31:34.819Z,33.12
2018-07-21T16:34:03.972Z,33.68
2018-07-21T16:36:33.756Z,33.73
2018-07-21T16:39:02.853Z,33.32
2018-07-21T16:41:32.008Z,33.52
2018-07-21T16:44:01.127Z,33.55
2018-07-21T16:46:30.264Z,34.17
2018-07-21T16:48:59.402Z,33.93
2018-07-21T16:51:28.528Z,34.13
2018-07-21T16:53:57.719Z,34.53
2018-07-21T16:56:26.915Z,34.91
2018-07-21T16:58:56.074Z,34.30
2018-07-21T17:01:25.252Z,34.37
2018-07-21T17:03:54.458Z,34.26
2018-07-21T17:06:23.625Z,35.34
2018-07-21T17:08:52.766Z,34.73
2018-07-21T17:11:21.919Z,35.33
2018-07-21T17:13:51.078Z,35.75
2018-07-21T17:16:20.226Z,35.90
2018-07-21T17:18:49.374Z,35.86
2018-07-21T17:21:18.512Z,35.17
2018-07-21T17:23:47.717Z,35.43
2018-07-21T17:26:16.879Z,35.58
2018-07-21T17:28:46.023Z,36.17
2018-07-21T17:31:15.166Z,36.18
2018-07-21T17:33:44.281Z,36.28
2018-07-21T17:36:13.455Z,36.20
2018-07-21T17:38:42.615Z,36.30
2018-07-21T17:41:11.774Z,35.74
2018-07-21T17:43:40.949Z,35.80
2018-07-21T17:46:10.105Z,36.03
2018-07-21T17:48:39.277Z,36.00
2018-07-21T17:51:08.405Z,36.16
2018-07-21T17:53:37.556Z,36.33
2018-07-21T17:56:06.742Z,36.50
2018-07-21T17:58:35.971Z,37.51
2018-07-21T18:01:05.071Z,37.32
2018-07-21T18:03:34.285Z,37.59
2018-07-21T18:06:03.482Z,37.06
2018-07-21T18:08:32.601Z,37.90
2018-07-21T18:11:01.735Z,38.22
2018-07-21T18:13:30.871Z,39.26
2018-07-21T18:16:00.167Z,39.65
2018-07-21T18:18:29.382Z,39.22
2018-07-21T18:20:58.566Z,39.50
2018-07-21T18:23:28.390Z,39.75
2018-07-21T18:25:57.547Z,40.90
2018-07-21T18:28:26.728Z,40.40
2018-07-21T18:30:55.854Z,41.18
2018-07-21T18:33:25.122Z,40.62
2018-07-21T18:35:54.270Z,41.37
2018-07-21T18:38:23.414Z,41.19
2018-07-21T18:40:52.796Z,40.89
2018-07-21T18:43:21.956Z,40.90
2018-07-21T18:45:51.113Z,41.49
2018-07-21T18:48:21.187Z,40.98
2018-07-21T18:50:50.414Z,42.13
2018-07-21T18:53:19.567Z,41.62
2018-07-21T18:55:48.721Z,41.25
2018-07-21T18:58:17.906Z,41.43
2018-07-21T19:00:47.039Z,41.94
2018-07-21T19:03:16.788Z,42.47
2018-07-21T19:05:46.035Z,41.90
2018-07-21T19:08:20.463Z,41.91
2018-07-21T19:10:49.954Z,42.74
2018-07-21T19:13:19.153Z,42.86
2018-07-21T19:15:53.650Z,43.01
2018-07-21T19:18:22.658Z,42.97
2018-07-21T19:20:57.177Z,42.47
2018-07-21T19:23:26.395Z,43.35
2018-07-21T19:26:00.915Z,43.28
2018-07-21T19:28:30.218Z,43.10
2018-07-21T19:30:59.378Z,43.05
2018-07-21T19:33:28.522Z,43.30
2018-07-21T19:35:58.464Z,43.56
2018-07-21T19:38:27.619Z,43.66
2018-07-21T19:40:56.802Z,43.93
2018-07-21T19:43:26.098Z,44.53
2018-07-21T19:45:55.267Z,44.59
2018-07-21T19:48:24.378Z,44.00
2018-07-21T19:50:53.576Z,44.63
2018-07-21T19:53:22.719Z,45.03
2018-07-21T19:55:52.142Z,44.44
2018-07-21T19:58:21.623Z,45.36
2018-07-21T20:00:50.818Z,44.78
2018-07-21T20:03:19.950Z,45.60
2018-07-21T20:05:49.117Z,46.03
2018-07-21T20:08:18.270Z,45.76
2018-07-21T20:10:47.410Z,46.13
2018-07-21T20:13:16.530Z,45.54
2018-07-21T20:15:45.726Z,46.30
2018-07-21T20:18:14.994Z,46.42
2018-07-21T20:20:44.198Z,45.65
2018-07-21T20:23:13.359Z,46.24
2018-07-21T20:25:42.710Z,45.77
2018-07-21T20:28:11.959Z,46.05
2018-07-21T20:30:41.678Z,46.00
2018-07-21T20:33:10.791Z,46.55
2018-07-21T20:35:39.928Z,46.38
2018-07-21T20:38:09.107Z,46.77
2018-07-21T20:40:38.249Z,46.41
2018-07-21T20:43:07.978Z,46.55
2018-07-21T20:45:37.214Z,47.10
2018-07-21T20:48:06.420Z,46.49
2018-07-21T20:50:35.828Z,46.51
2018-07-21T20:53:05.035Z,46.63
2018-07-21T20:55:34.171Z,46.90
2018-07-21T20:58:03.715Z,47.68
2018-07-21T21:00:33.511Z,47.75
2018-07-21T21:03:02.756Z,47.36
2018-07-21T21:05:32.011Z,47.36
2018-07-21T21:08:01.211Z,47.15
2018-07-21T21:10:30.344Z,47.65
2018-07-21T21:12:59.499Z,47.39
2018-07-21T21:15:28.665Z,47.38
2018-07-21T21:17:57.854Z,48.29
2018-07-21T21:20:27.031Z,47.79
2018-07-21T21:22:56.865Z,48.62
2018-07-21T21:25:26.047Z,48.44
2018-07-21T21:27:55.397Z,49.06
2018-07-21T21:30:24.634Z,48.49
2018-07-21T21:32:53.832Z,49.44
2018-07-21T21:35:23.031Z,49.24
2018-07-21T21:37:52.187Z,49.69
2018-07-21T21:40:21.401Z,48.95
2018-07-21T21:42:50.772Z,49.01
2018-07-21T21:45:19.918Z,49.56
2018-07-21T21:47:49.076Z,49.07
2018-07-21T21:50:18.303Z,49.61
2018-07-21T21:52:47.513Z,48.87
2018-07-21T21:55:16.712Z,48.86
2018-07-21T21:57:45.848Z,49.51
2018-07-21T22:00:14.976Z,48.89
2018-07-21T22:02:44.134Z,48.89
2018-07-21T22:05:13.278Z,49.13
2018-07-21T22:07:42.480Z,48.90
2018-07-21T22:10:11.795Z,48.85
2018-07-21T22:12:40.989Z,49.04
2018-07-21T22:15:15.394Z,48.97
2018-07-21T22:17:45.452Z,49.27
2018-07-21T22:20:14.605Z,49.34
2018-07-21T22:22:44.129Z,49.40
2018-07-21T22:25:13.299Z,49.13
2018-07-21T22:27:42.466Z,48.96
2018-07-21T22:30:17.841Z,49.66
2018-07-21T22:32:46.985Z,49.46
2018-07-21T22:35:16.139Z,49.13
2018-07-21T22:37:45.364Z,49.72
2018-07-21T22:40:14.610Z,49.10
2018-07-21T22:42:45.335Z,49.52
2018-07-21T22:45:14.482Z,50.23
2018-07-21T22:47:45.372Z,50.02
2018-07-21T22:50:14.590Z,50.38
2018-07-21T22:52:43.748Z,49.62
2018-07-21T22:55:13.178Z,50.50
2018-07-21T22:57:42.511Z,50.38
2018-07-21T23:00:11.750Z,50.23
2018-07-21T23:02:41.892Z,49.92
2018-07-21T23:05:11.686Z,49.90
2018-07-21T23:07:40.924Z,50.57
2018-07-21T23:10:10.112Z,50.10
2018-07-21T23:12:39.264Z,49.89
2018-07-21T23:15:09.545Z,50.77
2018-07-21T23:17:38.681Z,50.20
2018-07-21T23:20:08.881Z,50.79
2018-07-21T23:22:38.305Z,50.47
2018-07-21T23:25:07.978Z,50.83
2018-07-21T23:27:37.160Z,50.39
2018-07-21T23:30:06.394Z,50.46
2018-07-21T23:32:35.615Z,51.18
2018-07-21T23:35:05.261Z,50.59
2018-07-21T23:37:34.924Z,51.42
2018-07-21T23:40:04.882Z,51.27
2018-07-21T23:42:34.987Z,51.20
2018-07-21T23:45:04.179Z,51.04
2018-07-21T23:47:33.319Z,51.49
2018-07-21T23:50:02.438Z,50.68
2018-07-21T23:52:31.578Z,51.52
2018-07-21T23:55:07.732Z,50.42
2018-07-21T23:57:37.305Z,50.87
